createdAt,value
2022-10-11T00:01:38.048Z,100553.63
2022-10-11T00:06:39.971Z,100555.75
2022-10-11T00:11:41.996Z,100547.97
2022-10-11T00:16:44.566Z,100555.91
2022-10-11T00:21:46.642Z,100572.53
2022-10-11T00:26:48.233Z,100575.56
2022-10-11T00:31:49.882Z,100592.16
2022-10-11T00:36:51.498Z,100599.91
2022-10-11T00:41:53.090Z,100603.19
2022-10-11T00:47:03.154Z,100618.38
2022-10-11T00:52:12.593Z,100619.94
2022-10-11T00:57:20.440Z,100626.34
2022-10-11T01:02:23.667Z,100637.44
2022-10-11T01:07:31.172Z,100640.19
2022-10-11T01:12:36.088Z,100645.28
2022-10-11T01:17:50.085Z,100658.59
2022-10-11T01:23:19.292Z,100661.09
2022-10-11T01:28:42.562Z,100664.94
2022-10-11T01:34:03.361Z,100663.53
2022-10-11T01:39:13.424Z,100659.63
2022-10-11T01:44:15.731Z,100674.00
2022-10-11T01:49:18.077Z,100678.16
2022-10-11T01:55:08.583Z,100681.44
2022-10-11T02:00:15.183Z,100687.09
2022-10-11T02:05:25.816Z,100688.31
2022-10-11T02:10:34.903Z,100686.34
2022-10-11T02:15:40.287Z,100688.13
2022-10-11T02:20:44.211Z,100692.97
2022-10-11T02:25:47.819Z,100696.00
2022-10-11T02:30:52.118Z,100703.72
2022-10-11T02:36:00.416Z,100693.28
2022-10-11T02:41:09.946Z,100697.88
2022-10-11T02:46:12.845Z,100702.38
2022-10-11T02:51:14.798Z,100699.44
2022-10-11T02:56:16.393Z,100706.66
2022-10-11T03:01:18.335Z,100703.44
2022-10-11T03:06:19.972Z,100712.06
2022-10-11T03:11:21.574Z,100713.41
2022-10-11T03:16:23.170Z,100721.94
2022-10-11T03:21:25.281Z,100719.50
2022-10-11T03:26:27.506Z,100731.28
2022-10-11T03:31:29.187Z,100733.19
2022-10-11T03:36:30.977Z,100731.25
2022-10-11T03:41:32.653Z,100746.06
2022-10-11T03:46:34.332Z,100742.97
2022-10-11T03:51:36.520Z,100754.66
2022-10-11T03:56:38.072Z,100755.59
2022-10-11T04:01:39.694Z,100758.22
2022-10-11T04:06:41.426Z,100761.75
2022-10-11T04:11:43.012Z,100764.63
2022-10-11T04:16:44.714Z,100762.47
2022-10-11T04:21:46.309Z,100779.06
2022-10-11T04:26:48.596Z,100783.28
2022-10-11T04:31:50.538Z,100784.84
2022-10-11T04:36:52.385Z,100796.66
2022-10-11T04:41:53.981Z,100793.38
2022-10-11T04:46:55.743Z,100803.78
2022-10-11T04:51:57.366Z,100801.41
2022-10-11T04:56:58.944Z,100808.50
2022-10-11T05:02:00.674Z,100810.19
2022-10-11T05:07:02.585Z,100809.31
2022-10-11T05:12:04.458Z,100817.16
2022-10-11T05:17:06.057Z,100817.28
2022-10-11T05:22:07.766Z,100815.75
2022-10-11T05:27:09.361Z,100830.97
2022-10-11T05:32:11.037Z,100829.56
2022-10-11T05:37:12.636Z,100841.81
2022-10-11T05:42:14.281Z,100853.09
2022-10-11T05:47:15.840Z,100861.75
2022-10-11T05:52:21.586Z,100867.03
2022-10-11T05:57:23.370Z,100870.72
2022-10-11T06:02:25.100Z,100876.66
2022-10-11T06:07:26.904Z,100880.94
2022-10-11T06:12:31.669Z,100887.69
2022-10-11T06:17:33.751Z,100894.50
2022-10-11T06:22:35.479Z,100896.84
2022-10-11T06:27:37.345Z,100905.28
2022-10-11T06:32:38.960Z,100906.72
2022-10-11T06:37:40.795Z,100916.94
2022-10-11T06:42:42.513Z,100917.41
2022-10-11T06:47:44.186Z,100924.03
2022-10-11T06:52:47.040Z,100934.81
2022-10-11T06:57:48.615Z,100937.22
2022-10-11T07:02:50.197Z,100933.91
2022-10-11T07:07:51.786Z,100937.72
2022-10-11T07:12:53.423Z,100943.91
2022-10-11T07:17:55.031Z,100951.84
2022-10-11T07:22:56.601Z,100954.84
2022-10-11T07:27:58.291Z,100954.34
2022-10-11T07:32:59.929Z,100955.41
2022-10-11T07:38:01.836Z,100950.03
2022-10-11T07:43:03.415Z,100944.31
2022-10-11T07:48:05.428Z,100963.19
2022-10-11T07:53:08.076Z,100963.50
2022-10-11T07:58:11.582Z,100962.22
2022-10-11T08:03:14.118Z,100954.69
2022-10-11T08:08:16.026Z,100953.34
2022-10-11T08:13:17.633Z,100959.59
2022-10-11T08:18:19.528Z,100959.50
2022-10-11T08:23:21.138Z,100966.66
2022-10-11T08:28:22.843Z,100964.72
2022-10-11T08:33:26.296Z,100965.13
2022-10-11T08:38:27.909Z,100953.16
2022-10-11T08:43:36.618Z,100961.63
2022-10-11T08:48:42.359Z,100957.69
2022-10-11T08:53:54.141Z,100957.16
2022-10-11T08:59:13.927Z,100952.25
2022-10-11T09:04:17.833Z,100948.63
2022-10-11T09:09:53.138Z,100949.88
2022-10-11T09:15:17.641Z,100954.94
2022-10-11T09:20:40.316Z,100952.13
2022-10-11T09:26:07.891Z,100953.09
2022-10-11T09:31:11.394Z,100948.22
2022-10-11T09:36:41.757Z,100948.66
2022-10-11T09:41:53.561Z,100944.53
2022-10-11T09:46:56.896Z,100944.88
2022-10-11T09:52:02.111Z,100940.63
2022-10-11T09:57:03.848Z,100947.59
2022-10-11T10:02:14.685Z,100943.28
2022-10-11T10:07:16.356Z,100948.88
2022-10-11T10:12:31.235Z,100934.19
2022-10-11T10:17:33.790Z,100933.38
2022-10-11T10:22:37.472Z,100934.13
2022-10-11T10:27:39.053Z,100926.84
2022-10-11T10:33:07.371Z,100931.84
2022-10-11T10:38:33.846Z,100926.78
2022-10-11T10:43:39.529Z,100919.13
2022-10-11T10:54:46.394Z,100904.47
2022-10-11T10:59:53.228Z,100907.00
2022-10-11T11:05:12.198Z,100893.72
2022-10-11T11:10:21.003Z,100896.34
2022-10-11T11:15:38.958Z,100889.09
2022-10-11T11:21:18.437Z,100885.88
2022-10-11T11:26:45.444Z,100888.59
2022-10-11T11:32:23.466Z,100881.72
2022-10-11T11:37:33.462Z,100874.00
2022-10-11T11:42:54.218Z,100874.84
2022-10-11T11:48:04.205Z,100866.38
2022-10-11T11:53:19.272Z,100866.59
2022-10-11T11:59:03.343Z,100865.16
2022-10-11T12:04:26.935Z,100862.16
2022-10-11T12:09:30.271Z,100858.69
2022-10-11T12:14:34.930Z,100851.84
2022-10-11T12:19:38.567Z,100861.25
2022-10-11T12:25:00.692Z,100853.16
2022-10-11T12:30:02.394Z,100851.09
2022-10-11T12:35:28.790Z,100842.59
2022-10-11T12:40:37.624Z,100835.34
2022-10-11T12:45:39.527Z,100827.81
2022-10-11T12:50:47.929Z,100820.66
2022-10-11T12:55:59.985Z,100817.56
2022-10-11T13:01:01.611Z,100811.25
2022-10-11T13:06:20.623Z,100811.44
2022-10-11T13:11:30.859Z,100807.44
2022-10-11T13:16:49.454Z,100802.69
2022-10-11T13:21:55.738Z,100799.56
2022-10-11T13:26:58.136Z,100790.94
2022-10-11T13:32:14.684Z,100790.34
2022-10-11T13:37:19.534Z,100787.97
2022-10-11T13:42:27.961Z,100788.25
2022-10-11T13:47:32.238Z,100787.13
2022-10-11T13:52:34.583Z,100784.03
2022-10-11T13:57:47.999Z,100781.66
2022-10-11T14:03:00.210Z,100772.41
2022-10-11T14:08:06.630Z,100771.22
2022-10-11T14:13:41.819Z,100776.19
2022-10-11T14:18:49.530Z,100771.81
2022-10-11T14:24:00.780Z,100765.47
2022-10-11T14:29:06.969Z,100768.97
2022-10-11T14:34:15.740Z,100767.13
2022-10-11T14:39:21.147Z,100762.84
2022-10-11T14:44:23.265Z,100763.59
2022-10-11T14:49:27.676Z,100761.56
2022-10-11T14:54:31.324Z,100759.34
2022-10-11T14:59:37.208Z,100761.56
2022-10-11T15:04:38.780Z,100752.91
2022-10-11T15:09:40.370Z,100749.31
2022-10-11T15:14:41.961Z,100747.41
2022-10-11T15:19:43.606Z,100749.19
2022-10-11T15:24:49.368Z,100747.16
2022-10-11T15:29:53.182Z,100742.09
2022-10-11T15:34:54.900Z,100747.97
2022-10-11T15:39:56.495Z,100744.47
2022-10-11T15:44:58.952Z,100741.88
2022-10-11T15:50:00.625Z,100744.28
2022-10-11T15:55:02.252Z,100747.88
2022-10-11T16:00:04.762Z,100752.50
2022-10-11T16:05:06.576Z,100757.88
2022-10-11T16:10:08.536Z,100748.50
2022-10-11T16:15:10.599Z,100755.03
2022-10-11T16:20:12.987Z,100761.91
2022-10-11T16:25:14.606Z,100758.13
2022-10-11T16:30:18.221Z,100759.78
2022-10-11T16:35:20.436Z,100750.81
2022-10-11T16:40:22.176Z,100755.38
2022-10-11T16:45:23.766Z,100760.72
2022-10-11T16:50:25.747Z,100762.19
2022-10-11T16:55:27.354Z,100767.34
2022-10-11T17:00:29.180Z,100770.38
2022-10-11T17:05:30.806Z,100769.13
2022-10-11T17:10:39.604Z,100773.59
2022-10-11T17:15:41.253Z,100786.47
2022-10-11T17:20:43.626Z,100784.34
2022-10-11T17:25:46.664Z,100789.47
2022-10-11T17:30:58.164Z,100791.09
2022-10-11T17:36:00.615Z,100790.72
2022-10-11T17:41:04.875Z,100788.72
2022-10-11T17:46:07.636Z,100798.00
2022-10-11T17:51:12.857Z,100799.41
2022-10-11T17:56:18.131Z,100798.44
2022-10-11T18:01:22.765Z,100811.06
2022-10-11T18:06:30.846Z,100801.91
2022-10-11T18:11:33.045Z,100805.03
2022-10-11T18:16:36.252Z,100808.94
2022-10-11T18:21:38.461Z,100808.56
2022-10-11T18:26:40.379Z,100805.41
2022-10-11T18:31:42.314Z,100806.06
2022-10-11T18:36:44.027Z,100803.09
2022-10-11T18:41:45.912Z,100807.09
2022-10-11T18:46:48.384Z,100806.69
2022-10-11T18:51:50.346Z,100807.38
2022-10-11T18:56:52.239Z,100806.47
2022-10-11T19:01:56.635Z,100804.09
2022-10-11T19:06:58.443Z,100807.84
2022-10-11T19:12:00.668Z,100801.44
2022-10-11T19:17:02.441Z,100809.31
2022-10-11T19:22:05.012Z,100808.78
2022-10-11T19:27:06.820Z,100808.06
2022-10-11T19:32:11.384Z,100810.00
2022-10-11T19:37:13.514Z,100812.13
2022-10-11T19:42:15.410Z,100823.34
2022-10-11T19:47:17.294Z,100825.53
2022-10-11T19:52:18.912Z,100829.69
2022-10-11T19:57:20.683Z,100825.38
2022-10-11T20:02:22.389Z,100829.19
2022-10-11T20:07:24.074Z,100837.72
2022-10-11T20:12:29.396Z,100829.91
2022-10-11T20:17:50.037Z,100826.47
2022-10-11T20:22:53.516Z,100833.50
2022-10-11T20:27:55.210Z,100823.16
2022-10-11T20:32:59.263Z,100832.88
2022-10-11T20:38:00.864Z,100830.34
2022-10-11T20:43:02.502Z,100832.28
2022-10-11T20:48:04.140Z,100834.00
2022-10-11T20:53:05.748Z,100833.25
2022-10-11T20:58:07.342Z,100836.28
2022-10-11T21:03:09.386Z,100834.09
2022-10-11T21:08:11.105Z,100824.66
2022-10-11T21:13:12.697Z,100826.50
2022-10-11T21:18:14.276Z,100829.22
2022-10-11T21:23:18.848Z,100820.63
2022-10-11T21:28:20.521Z,100826.00
2022-10-11T21:33:22.150Z,100826.28
2022-10-11T21:38:23.764Z,100824.66
2022-10-11T21:43:25.351Z,100816.88
2022-10-11T21:48:29.256Z,100815.53
2022-10-11T21:53:30.859Z,100819.31
2022-10-11T21:58:32.488Z,100821.06
2022-10-11T22:03:34.289Z,100821.16
2022-10-11T22:08:36.194Z,100817.72
2022-10-11T22:13:38.388Z,100817.97
2022-10-11T22:18:41.380Z,100816.25
2022-10-11T22:23:46.009Z,100819.81
2022-10-11T22:28:48.100Z,100814.78
2022-10-11T22:33:56.929Z,100810.56
2022-10-11T22:38:59.018Z,100814.19
2022-10-11T22:44:00.742Z,100808.34
2022-10-11T22:49:02.336Z,100812.13
2022-10-11T22:54:04.133Z,100808.75
2022-10-11T22:59:05.807Z,100806.25
2022-10-11T23:04:07.464Z,100804.66
2022-10-11T23:09:09.111Z,100814.25
2022-10-11T23:14:11.088Z,100804.44
2022-10-11T23:19:12.899Z,100802.13
2022-10-11T23:24:14.540Z,100802.91
2022-10-11T23:29:16.150Z,100807.25
2022-10-11T23:34:17.752Z,100809.97
2022-10-11T23:39:19.358Z,100811.03
2022-10-11T23:44:21.026Z,100813.63
2022-10-11T23:49:22.716Z,100823.19
2022-10-11T23:54:24.284Z,100818.13
2022-10-11T23:59:25.860Z,100829.63
